sensor_id;sensor_type;location;lat;lon;timestamp;temperature;humidity
29403;DHT22;16382;59.942;30.472;2022-09-13T00:01:11;13.20;99.90
29403;DHT22;16382;59.942;30.472;2022-09-13T00:03:38;13.20;99.90
29403;DHT22;16382;59.942;30.472;2022-09-13T00:06:10;13.20;99.90
29403;DHT22;16382;59.942;30.472;2022-09-13T00:08:40;13.20;99.90
29403;DHT22;16382;59.942;30.472;2022-09-13T00:11:14;13.20;99.90
29403;DHT22;16382;59.942;30.472;2022-09-13T00:13:43;13.20;99.90
29403;DHT22;16382;59.942;30.472;2022-09-13T00:16:11;13.10;99.90
29403;DHT22;16382;59.942;30.472;2022-09-13T00:18:40;13.10;99.90
29403;DHT22;16382;59.942;30.472;2022-09-13T00:21:09;13.10;99.90
29403;DHT22;16382;59.942;30.472;2022-09-13T00:23:37;13.00;99.90
29403;DHT22;16382;59.942;30.472;2022-09-13T00:26:09;13.00;99.90
29403;DHT22;16382;59.942;30.472;2022-09-13T00:28:37;13.00;99.90
29403;DHT22;16382;59.942;30.472;2022-09-13T00:31:07;13.00;99.90
29403;DHT22;16382;59.942;30.472;2022-09-13T00:33:35;12.90;99.90
29403;DHT22;16382;59.942;30.472;2022-09-13T00:36:05;12.90;99.90
29403;DHT22;16382;59.942;30.472;2022-09-13T00:38:34;12.90;99.90
29403;DHT22;16382;59.942;30.472;2022-09-13T00:41:02;12.90;99.90
29403;DHT22;16382;59.942;30.472;2022-09-13T00:43:44;12.90;99.90
29403;DHT22;16382;59.942;30.472;2022-09-13T00:46:19;12.90;99.90
29403;DHT22;16382;59.942;30.472;2022-09-13T00:48:49;12.80;99.90
29403;DHT22;16382;59.942;30.472;2022-09-13T00:51:19;12.80;99.90
29403;DHT22;16382;59.942;30.472;2022-09-13T00:53:49;12.80;99.90
29403;DHT22;16382;59.942;30.472;2022-09-13T00:56:22;12.70;99.90
29403;DHT22;16382;59.942;30.472;2022-09-13T00:58:56;12.70;99.90
29403;DHT22;16382;59.942;30.472;2022-09-13T01:01:30;12.70;99.90
29403;DHT22;16382;59.942;30.472;2022-09-13T01:04:00;12.70;99.90
29403;DHT22;16382;59.942;30.472;2022-09-13T01:06:30;12.80;99.90
29403;DHT22;16382;59.942;30.472;2022-09-13T01:09:00;12.80;99.90
29403;DHT22;16382;59.942;30.472;2022-09-13T01:11:35;12.80;99.90
29403;DHT22;16382;59.942;30.472;2022-09-13T01:14:09;12.80;99.90
29403;DHT22;16382;59.942;30.472;2022-09-13T01:16:36;12.80;99.90
29403;DHT22;16382;59.942;30.472;2022-09-13T01:19:03;12.80;99.90
29403;DHT22;16382;59.942;30.472;2022-09-13T01:22:06;12.80;99.90
29403;DHT22;16382;59.942;30.472;2022-09-13T01:25:35;12.80;99.90
29403;DHT22;16382;59.942;30.472;2022-09-13T01:28:44;12.70;99.90
29403;DHT22;16382;59.942;30.472;2022-09-13T01:31:35;12.70;99.90
29403;DHT22;16382;59.942;30.472;2022-09-13T01:34:15;12.70;99.90
29403;DHT22;16382;59.942;30.472;2022-09-13T01:37:01;12.70;99.90
29403;DHT22;16382;59.942;30.472;2022-09-13T01:39:49;12.70;99.90
29403;DHT22;16382;59.942;30.472;2022-09-13T01:42:31;12.70;99.90
29403;DHT22;16382;59.942;30.472;2022-09-13T01:45:15;12.70;99.90
29403;DHT22;16382;59.942;30.472;2022-09-13T01:47:52;12.60;99.90
29403;DHT22;16382;59.942;30.472;2022-09-13T01:50:27;12.60;99.90
29403;DHT22;16382;59.942;30.472;2022-09-13T01:53:06;12.60;99.90
29403;DHT22;16382;59.942;30.472;2022-09-13T01:55:41;12.60;99.90
29403;DHT22;16382;59.942;30.472;2022-09-13T01:58:18;12.60;99.90
29403;DHT22;16382;59.942;30.472;2022-09-13T02:00:53;12.60;99.90
29403;DHT22;16382;59.942;30.472;2022-09-13T02:03:29;12.60;99.90
29403;DHT22;16382;59.942;30.472;2022-09-13T02:06:02;12.60;99.90
29403;DHT22;16382;59.942;30.472;2022-09-13T02:08:33;12.60;99.90
29403;DHT22;16382;59.942;30.472;2022-09-13T02:11:07;12.60;99.90
29403;DHT22;16382;59.942;30.472;2022-09-13T02:13:38;12.60;99.90
29403;DHT22;16382;59.942;30.472;2022-09-13T02:16:12;12.50;99.90
29403;DHT22;16382;59.942;30.472;2022-09-13T02:18:46;12.50;99.90
29403;DHT22;16382;59.942;30.472;2022-09-13T02:21:19;12.50;99.90
29403;DHT22;16382;59.942;30.472;2022-09-13T02:23:51;12.50;99.90
29403;DHT22;16382;59.942;30.472;2022-09-13T02:26:21;12.50;99.90
29403;DHT22;16382;59.942;30.472;2022-09-13T02:28:51;12.50;99.90
29403;DHT22;16382;59.942;30.472;2022-09-13T02:31:25;12.50;99.90
29403;DHT22;16382;59.942;30.472;2022-09-13T02:33:59;12.40;99.90
29403;DHT22;16382;59.942;30.472;2022-09-13T02:36:33;12.30;99.90
29403;DHT22;16382;59.942;30.472;2022-09-13T02:39:05;12.30;99.90
29403;DHT22;16382;59.942;30.472;2022-09-13T02:41:40;12.30;99.90
29403;DHT22;16382;59.942;30.472;2022-09-13T02:44:12;12.30;99.90
29403;DHT22;16382;59.942;30.472;2022-09-13T02:46:53;12.30;99.90
29403;DHT22;16382;59.942;30.472;2022-09-13T02:49:32;12.20;99.90
29403;DHT22;16382;59.942;30.472;2022-09-13T02:52:07;12.20;99.90
29403;DHT22;16382;59.942;30.472;2022-09-13T02:54:42;12.20;99.90
29403;DHT22;16382;59.942;30.472;2022-09-13T02:57:20;12.20;99.90
29403;DHT22;16382;59.942;30.472;2022-09-13T02:59:57;12.20;99.90
29403;DHT22;16382;59.942;30.472;2022-09-13T03:02:27;12.20;99.90
29403;DHT22;16382;59.942;30.472;2022-09-13T03:05:00;12.20;99.90
29403;DHT22;16382;59.942;30.472;2022-09-13T03:07:28;12.20;99.90
29403;DHT22;16382;59.942;30.472;2022-09-13T03:09:57;12.20;99.90
29403;DHT22;16382;59.942;30.472;2022-09-13T03:12:52;12.20;99.90
29403;DHT22;16382;59.942;30.472;2022-09-13T03:15:37;12.30;99.90
29403;DHT22;16382;59.942;30.472;2022-09-13T03:18:21;12.30;99.90
29403;DHT22;16382;59.942;30.472;2022-09-13T03:21:04;12.30;99.90
29403;DHT22;16382;59.942;30.472;2022-09-13T03:23:40;12.30;99.90
29403;DHT22;16382;59.942;30.472;2022-09-13T03:26:22;12.30;99.90
29403;DHT22;16382;59.942;30.472;2022-09-13T03:28:59;12.30;99.90
29403;DHT22;16382;59.942;30.472;2022-09-13T03:31:39;12.30;99.90
29403;DHT22;16382;59.942;30.472;2022-09-13T03:34:17;12.20;99.90
29403;DHT22;16382;59.942;30.472;2022-09-13T03:36:54;12.20;99.90
29403;DHT22;16382;59.942;30.472;2022-09-13T03:39:32;12.20;99.90
29403;DHT22;16382;59.942;30.472;2022-09-13T03:42:08;12.20;99.90
29403;DHT22;16382;59.942;30.472;2022-09-13T03:44:40;12.20;99.90
29403;DHT22;16382;59.942;30.472;2022-09-13T03:47:10;12.10;99.90
29403;DHT22;16382;59.942;30.472;2022-09-13T03:49:38;12.10;99.90
29403;DHT22;16382;59.942;30.472;2022-09-13T03:52:07;12.20;99.90
29403;DHT22;16382;59.942;30.472;2022-09-13T03:54:36;12.10;99.90
29403;DHT22;16382;59.942;30.472;2022-09-13T03:57:12;12.20;99.90
29403;DHT22;16382;59.942;30.472;2022-09-13T03:59:43;12.20;99.90
29403;DHT22;16382;59.942;30.472;2022-09-13T04:02:13;12.20;99.90
29403;DHT22;16382;59.942;30.472;2022-09-13T04:04:42;12.30;99.90
29403;DHT22;16382;59.942;30.472;2022-09-13T04:07:13;12.30;99.90
29403;DHT22;16382;59.942;30.472;2022-09-13T04:09:42;12.30;99.90
29403;DHT22;16382;59.942;30.472;2022-09-13T04:12:10;12.30;99.90
29403;DHT22;16382;59.942;30.472;2022-09-13T04:14:39;12.30;99.90
29403;DHT22;16382;59.942;30.472;2022-09-13T04:17:07;12.20;99.90
29403;DHT22;16382;59.942;30.472;2022-09-13T04:19:35;12.30;99.90
29403;DHT22;16382;59.942;30.472;2022-09-13T04:22:03;12.30;99.90
29403;DHT22;16382;59.942;30.472;2022-09-13T04:24:31;12.30;99.90
29403;DHT22;16382;59.942;30.472;2022-09-13T04:27:00;12.30;99.90
29403;DHT22;16382;59.942;30.472;2022-09-13T04:29:28;12.30;99.90
29403;DHT22;16382;59.942;30.472;2022-09-13T04:31:56;12.40;99.90
29403;DHT22;16382;59.942;30.472;2022-09-13T04:34:24;12.40;99.90
29403;DHT22;16382;59.942;30.472;2022-09-13T04:36:52;12.30;99.90
29403;DHT22;16382;59.942;30.472;2022-09-13T04:39:20;12.30;99.90
29403;DHT22;16382;59.942;30.472;2022-09-13T04:41:50;12.40;99.90
29403;DHT22;16382;59.942;30.472;2022-09-13T04:44:26;12.40;99.90
29403;DHT22;16382;59.942;30.472;2022-09-13T04:46:54;12.40;99.90
29403;DHT22;16382;59.942;30.472;2022-09-13T04:49:22;12.40;99.90
29403;DHT22;16382;59.942;30.472;2022-09-13T04:51:49;12.40;99.90
29403;DHT22;16382;59.942;30.472;2022-09-13T04:54:22;12.40;99.90
29403;DHT22;16382;59.942;30.472;2022-09-13T04:57:06;12.50;99.90
29403;DHT22;16382;59.942;30.472;2022-09-13T04:59:44;12.50;99.90
29403;DHT22;16382;59.942;30.472;2022-09-13T05:02:17;12.60;99.90
29403;DHT22;16382;59.942;30.472;2022-09-13T05:04:55;12.60;99.90
29403;DHT22;16382;59.942;30.472;2022-09-13T05:07:29;12.70;99.90
29403;DHT22;16382;59.942;30.472;2022-09-13T05:10:10;12.70;99.90
29403;DHT22;16382;59.942;30.472;2022-09-13T05:12:39;12.70;99.90
29403;DHT22;16382;59.942;30.472;2022-09-13T05:15:07;12.80;99.90
29403;DHT22;16382;59.942;30.472;2022-09-13T05:17:37;12.80;99.90
29403;DHT22;16382;59.942;30.472;2022-09-13T05:20:05;12.80;99.90
29403;DHT22;16382;59.942;30.472;2022-09-13T05:22:34;12.80;99.90
29403;DHT22;16382;59.942;30.472;2022-09-13T05:25:01;12.90;99.90
29403;DHT22;16382;59.942;30.472;2022-09-13T05:27:29;13.00;99.90
29403;DHT22;16382;59.942;30.472;2022-09-13T05:29:57;13.00;99.90
29403;DHT22;16382;59.942;30.472;2022-09-13T05:32:25;13.00;99.90
29403;DHT22;16382;59.942;30.472;2022-09-13T05:34:52;13.00;99.90
29403;DHT22;16382;59.942;30.472;2022-09-13T05:37:19;13.10;99.90
29403;DHT22;16382;59.942;30.472;2022-09-13T05:39:47;13.10;99.90
29403;DHT22;16382;59.942;30.472;2022-09-13T05:42:14;13.10;99.90
29403;DHT22;16382;59.942;30.472;2022-09-13T05:44:42;13.20;99.90
29403;DHT22;16382;59.942;30.472;2022-09-13T05:47:12;13.20;99.90
29403;DHT22;16382;59.942;30.472;2022-09-13T05:49:39;13.30;99.90
29403;DHT22;16382;59.942;30.472;2022-09-13T05:52:07;13.30;99.90
29403;DHT22;16382;59.942;30.472;2022-09-13T05:54:34;13.40;99.90
29403;DHT22;16382;59.942;30.472;2022-09-13T05:57:02;13.50;99.90
29403;DHT22;16382;59.942;30.472;2022-09-13T05:59:30;13.60;99.90
29403;DHT22;16382;59.942;30.472;2022-09-13T06:01:58;13.60;99.90
29403;DHT22;16382;59.942;30.472;2022-09-13T06:04:27;13.60;99.90
29403;DHT22;16382;59.942;30.472;2022-09-13T06:06:55;13.70;99.90
29403;DHT22;16382;59.942;30.472;2022-09-13T06:09:22;13.80;99.90
29403;DHT22;16382;59.942;30.472;2022-09-13T06:11:49;13.80;99.90
29403;DHT22;16382;59.942;30.472;2022-09-13T06:14:17;13.80;99.90
29403;DHT22;16382;59.942;30.472;2022-09-13T06:16:44;13.90;99.90
29403;DHT22;16382;59.942;30.472;2022-09-13T06:19:12;14.00;99.90
29403;DHT22;16382;59.942;30.472;2022-09-13T06:21:41;14.10;99.90
29403;DHT22;16382;59.942;30.472;2022-09-13T06:24:08;14.20;99.90
29403;DHT22;16382;59.942;30.472;2022-09-13T06:26:36;14.20;99.90
29403;DHT22;16382;59.942;30.472;2022-09-13T06:29:03;14.30;99.90
29403;DHT22;16382;59.942;30.472;2022-09-13T06:31:31;14.30;99.90
29403;DHT22;16382;59.942;30.472;2022-09-13T06:33:59;14.40;99.90
29403;DHT22;16382;59.942;30.472;2022-09-13T06:36:28;14.50;99.90
29403;DHT22;16382;59.942;30.472;2022-09-13T06:38:57;14.60;99.90
29403;DHT22;16382;59.942;30.472;2022-09-13T06:41:26;14.60;99.90
29403;DHT22;16382;59.942;30.472;2022-09-13T06:43:55;14.80;99.90
29403;DHT22;16382;59.942;30.472;2022-09-13T06:46:24;14.90;99.90
29403;DHT22;16382;59.942;30.472;2022-09-13T06:48:52;14.90;99.90
29403;DHT22;16382;59.942;30.472;2022-09-13T06:51:21;15.00;99.90
29403;DHT22;16382;59.942;30.472;2022-09-13T06:53:50;15.20;99.90
29403;DHT22;16382;59.942;30.472;2022-09-13T06:56:23;15.20;99.90
29403;DHT22;16382;59.942;30.472;2022-09-13T06:58:55;15.30;99.90
29403;DHT22;16382;59.942;30.472;2022-09-13T07:01:25;15.40;99.90
29403;DHT22;16382;59.942;30.472;2022-09-13T07:03:57;15.50;99.90
29403;DHT22;16382;59.942;30.472;2022-09-13T07:06:29;15.70;99.90
29403;DHT22;16382;59.942;30.472;2022-09-13T07:08:59;15.60;99.90
29403;DHT22;16382;59.942;30.472;2022-09-13T07:11:31;15.60;99.90
29403;DHT22;16382;59.942;30.472;2022-09-13T07:14:00;15.50;99.90
29403;DHT22;16382;59.942;30.472;2022-09-13T07:16:28;15.50;99.90
29403;DHT22;16382;59.942;30.472;2022-09-13T07:18:58;15.50;99.90
29403;DHT22;16382;59.942;30.472;2022-09-13T07:21:27;15.60;99.90
29403;DHT22;16382;59.942;30.472;2022-09-13T07:23:55;15.70;99.90
29403;DHT22;16382;59.942;30.472;2022-09-13T07:26:23;15.70;99.90
29403;DHT22;16382;59.942;30.472;2022-09-13T07:28:55;15.80;99.90
29403;DHT22;16382;59.942;30.472;2022-09-13T07:31:24;15.90;99.90
29403;DHT22;16382;59.942;30.472;2022-09-13T07:33:54;16.00;99.90
29403;DHT22;16382;59.942;30.472;2022-09-13T07:36:23;16.00;99.90
29403;DHT22;16382;59.942;30.472;2022-09-13T07:38:51;16.20;99.90
29403;DHT22;16382;59.942;30.472;2022-09-13T07:41:20;16.30;99.90
29403;DHT22;16382;59.942;30.472;2022-09-13T07:43:49;16.50;99.90
29403;DHT22;16382;59.942;30.472;2022-09-13T07:46:20;16.60;99.90
29403;DHT22;16382;59.942;30.472;2022-09-13T07:48:48;16.80;99.90
29403;DHT22;16382;59.942;30.472;2022-09-13T07:51:20;16.90;99.90
29403;DHT22;16382;59.942;30.472;2022-09-13T07:53:49;16.80;99.90
29403;DHT22;16382;59.942;30.472;2022-09-13T07:56:18;16.80;99.90
29403;DHT22;16382;59.942;30.472;2022-09-13T07:58:48;16.80;99.90
29403;DHT22;16382;59.942;30.472;2022-09-13T08:01:18;16.80;99.90
29403;DHT22;16382;59.942;30.472;2022-09-13T08:03:50;17.10;99.90
29403;DHT22;16382;59.942;30.472;2022-09-13T08:06:19;17.30;99.90
29403;DHT22;16382;59.942;30.472;2022-09-13T08:08:47;17.40;99.90
29403;DHT22;16382;59.942;30.472;2022-09-13T08:11:19;17.30;99.90
29403;DHT22;16382;59.942;30.472;2022-09-13T08:13:49;17.20;99.90
29403;DHT22;16382;59.942;30.472;2022-09-13T08:16:21;17.20;99.90
29403;DHT22;16382;59.942;30.472;2022-09-13T08:18:50;17.30;99.90
29403;DHT22;16382;59.942;30.472;2022-09-13T08:21:19;17.30;99.90
29403;DHT22;16382;59.942;30.472;2022-09-13T08:23:47;17.40;99.90
29403;DHT22;16382;59.942;30.472;2022-09-13T08:26:15;17.60;99.90
29403;DHT22;16382;59.942;30.472;2022-09-13T08:28:43;17.70;99.90
29403;DHT22;16382;59.942;30.472;2022-09-13T08:31:11;17.70;99.90
29403;DHT22;16382;59.942;30.472;2022-09-13T08:33:44;17.60;99.90
29403;DHT22;16382;59.942;30.472;2022-09-13T08:36:13;17.50;99.90
29403;DHT22;16382;59.942;30.472;2022-09-13T08:38:45;17.50;99.90
29403;DHT22;16382;59.942;30.472;2022-09-13T08:41:32;17.40;99.90
29403;DHT22;16382;59.942;30.472;2022-09-13T08:44:23;17.20;99.90
29403;DHT22;16382;59.942;30.472;2022-09-13T08:46:57;17.00;99.90
29403;DHT22;16382;59.942;30.472;2022-09-13T08:49:31;16.90;99.90
29403;DHT22;16382;59.942;30.472;2022-09-13T08:52:14;17.00;99.90
29403;DHT22;16382;59.942;30.472;2022-09-13T08:54:46;17.10;99.90
29403;DHT22;16382;59.942;30.472;2022-09-13T08:57:18;17.10;99.90
29403;DHT22;16382;59.942;30.472;2022-09-13T08:59:54;17.10;99.90
29403;DHT22;16382;59.942;30.472;2022-09-13T09:02:45;17.10;99.90
29403;DHT22;16382;59.942;30.472;2022-09-13T09:05:20;17.00;99.90
29403;DHT22;16382;59.942;30.472;2022-09-13T09:07:52;17.00;99.90
29403;DHT22;16382;59.942;30.472;2022-09-13T09:10:28;17.10;99.90
29403;DHT22;16382;59.942;30.472;2022-09-13T09:13:00;17.40;99.90
29403;DHT22;16382;59.942;30.472;2022-09-13T09:15:32;17.50;99.90
29403;DHT22;16382;59.942;30.472;2022-09-13T09:18:05;17.60;99.90
29403;DHT22;16382;59.942;30.472;2022-09-13T09:20:40;17.80;99.90
29403;DHT22;16382;59.942;30.472;2022-09-13T09:23:14;18.00;99.90
29403;DHT22;16382;59.942;30.472;2022-09-13T09:25:45;18.20;99.90
29403;DHT22;16382;59.942;30.472;2022-09-13T09:28:15;18.20;99.90
29403;DHT22;16382;59.942;30.472;2022-09-13T09:30:52;18.30;99.90
29403;DHT22;16382;59.942;30.472;2022-09-13T09:33:35;18.50;99.90
29403;DHT22;16382;59.942;30.472;2022-09-13T09:36:17;18.90;99.90
29403;DHT22;16382;59.942;30.472;2022-09-13T09:38:49;19.30;99.90
29403;DHT22;16382;59.942;30.472;2022-09-13T09:41:25;19.60;99.90
29403;DHT22;16382;59.942;30.472;2022-09-13T09:43:58;19.70;99.90
29403;DHT22;16382;59.942;30.472;2022-09-13T09:46:30;19.60;99.90
29403;DHT22;16382;59.942;30.472;2022-09-13T09:49:06;19.60;99.90
29403;DHT22;16382;59.942;30.472;2022-09-13T09:52:02;19.60;99.90
29403;DHT22;16382;59.942;30.472;2022-09-13T09:54:33;19.60;99.90
29403;DHT22;16382;59.942;30.472;2022-09-13T09:57:01;19.90;99.90
29403;DHT22;16382;59.942;30.472;2022-09-13T09:59:30;20.40;99.90
29403;DHT22;16382;59.942;30.472;2022-09-13T10:01:59;20.70;99.90
29403;DHT22;16382;59.942;30.472;2022-09-13T10:04:29;21.10;99.90
29403;DHT22;16382;59.942;30.472;2022-09-13T10:07:23;21.50;99.90
29403;DHT22;16382;59.942;30.472;2022-09-13T10:09:58;21.90;99.90
29403;DHT22;16382;59.942;30.472;2022-09-13T10:12:33;22.50;99.90
29403;DHT22;16382;59.942;30.472;2022-09-13T10:15:09;23.00;99.90
29403;DHT22;16382;59.942;30.472;2022-09-13T10:17:42;23.20;99.70
29403;DHT22;16382;59.942;30.472;2022-09-13T10:20:20;23.20;98.20
29403;DHT22;16382;59.942;30.472;2022-09-13T10:23:14;22.90;97.80
29403;DHT22;16382;59.942;30.472;2022-09-13T10:25:54;22.40;98.60
29403;DHT22;16382;59.942;30.472;2022-09-13T10:28:23;22.30;98.20
29403;DHT22;16382;59.942;30.472;2022-09-13T10:30:54;22.00;98.50
29403;DHT22;16382;59.942;30.472;2022-09-13T10:33:27;21.70;98.20
29403;DHT22;16382;59.942;30.472;2022-09-13T10:35:58;21.30;99.00
29403;DHT22;16382;59.942;30.472;2022-09-13T10:38:31;20.80;99.90
29403;DHT22;16382;59.942;30.472;2022-09-13T10:41:02;20.70;99.90
29403;DHT22;16382;59.942;30.472;2022-09-13T10:43:32;20.60;99.90
29403;DHT22;16382;59.942;30.472;2022-09-13T10:46:01;20.40;99.90
29403;DHT22;16382;59.942;30.472;2022-09-13T10:48:44;20.00;99.90
29403;DHT22;16382;59.942;30.472;2022-09-13T10:51:32;19.90;99.90
29403;DHT22;16382;59.942;30.472;2022-09-13T10:54:11;20.00;99.90
29403;DHT22;16382;59.942;30.472;2022-09-13T10:56:46;20.10;99.90
29403;DHT22;16382;59.942;30.472;2022-09-13T10:59:16;20.10;99.90
29403;DHT22;16382;59.942;30.472;2022-09-13T11:01:56;20.20;99.90
29403;DHT22;16382;59.942;30.472;2022-09-13T11:04:50;20.40;99.90
29403;DHT22;16382;59.942;30.472;2022-09-13T11:11:05;20.60;99.90
29403;DHT22;16382;59.942;30.472;2022-09-13T11:13:47;21.50;99.90
29403;DHT22;16382;59.942;30.472;2022-09-13T11:16:29;21.90;98.30
29403;DHT22;16382;59.942;30.472;2022-09-13T11:19:20;22.30;98.30
29403;DHT22;16382;59.942;30.472;2022-09-13T11:22:15;23.20;95.30
29403;DHT22;16382;59.942;30.472;2022-09-13T11:24:56;23.40;93.50
29403;DHT22;16382;59.942;30.472;2022-09-13T11:27:39;23.20;92.30
29403;DHT22;16382;59.942;30.472;2022-09-13T11:30:14;23.30;91.20
29403;DHT22;16382;59.942;30.472;2022-09-13T11:32:55;23.10;90.90
29403;DHT22;16382;59.942;30.472;2022-09-13T11:35:51;22.80;91.30
29403;DHT22;16382;59.942;30.472;2022-09-13T11:38:34;22.50;91.70
29403;DHT22;16382;59.942;30.472;2022-09-13T11:41:12;22.30;91.60
29403;DHT22;16382;59.942;30.472;2022-09-13T11:43:55;22.30;92.30
29403;DHT22;16382;59.942;30.472;2022-09-13T11:46:36;22.40;92.80
29403;DHT22;16382;59.942;30.472;2022-09-13T11:49:32;22.80;92.10
29403;DHT22;16382;59.942;30.472;2022-09-13T11:52:19;23.60;90.20
29403;DHT22;16382;59.942;30.472;2022-09-13T11:55:04;23.70;87.20
29403;DHT22;16382;59.942;30.472;2022-09-13T11:57:41;23.30;85.70
29403;DHT22;16382;59.942;30.472;2022-09-13T12:00:19;22.70;86.90
29403;DHT22;16382;59.942;30.472;2022-09-13T12:02:59;22.20;89.20
29403;DHT22;16382;59.942;30.472;2022-09-13T12:05:32;22.10;88.90
29403;DHT22;16382;59.942;30.472;2022-09-13T12:08:05;22.00;87.60
29403;DHT22;16382;59.942;30.472;2022-09-13T12:10:45;21.60;87.70
29403;DHT22;16382;59.942;30.472;2022-09-13T12:13:19;21.40;88.50
29403;DHT22;16382;59.942;30.472;2022-09-13T12:15:52;21.30;88.20
29403;DHT22;16382;59.942;30.472;2022-09-13T12:18:24;21.30;88.60
29403;DHT22;16382;59.942;30.472;2022-09-13T12:20:56;21.10;90.10
29403;DHT22;16382;59.942;30.472;2022-09-13T12:23:31;20.90;90.50
29403;DHT22;16382;59.942;30.472;2022-09-13T12:26:06;20.90;90.50
29403;DHT22;16382;59.942;30.472;2022-09-13T12:28:39;20.70;90.50
29403;DHT22;16382;59.942;30.472;2022-09-13T12:31:15;20.20;91.20
29403;DHT22;16382;59.942;30.472;2022-09-13T12:33:45;19.80;92.10
29403;DHT22;16382;59.942;30.472;2022-09-13T12:36:31;19.60;93.10
29403;DHT22;16382;59.942;30.472;2022-09-13T12:43:07;19.50;93.70
29403;DHT22;16382;59.942;30.472;2022-09-13T12:46:01;19.70;93.30
29403;DHT22;16382;59.942;30.472;2022-09-13T12:48:54;19.60;93.40
29403;DHT22;16382;59.942;30.472;2022-09-13T12:51:47;19.40;94.30
29403;DHT22;16382;59.942;30.472;2022-09-13T12:57:48;18.70;94.90
29403;DHT22;16382;59.942;30.472;2022-09-13T13:00:20;18.50;95.70
29403;DHT22;16382;59.942;30.472;2022-09-13T13:03:02;18.40;96.00
29403;DHT22;16382;59.942;30.472;2022-09-13T13:05:40;18.40;96.20
29403;DHT22;16382;59.942;30.472;2022-09-13T13:08:25;18.30;96.80
29403;DHT22;16382;59.942;30.472;2022-09-13T13:11:03;18.10;97.00
29403;DHT22;16382;59.942;30.472;2022-09-13T13:13:34;18.00;97.20
29403;DHT22;16382;59.942;30.472;2022-09-13T13:16:20;17.90;97.60
29403;DHT22;16382;59.942;30.472;2022-09-13T13:18:51;17.80;97.80
29403;DHT22;16382;59.942;30.472;2022-09-13T13:21:34;17.80;98.20
29403;DHT22;16382;59.942;30.472;2022-09-13T13:24:40;18.50;97.70
29403;DHT22;16382;59.942;30.472;2022-09-13T13:27:40;19.00;95.90
29403;DHT22;16382;59.942;30.472;2022-09-13T13:33:22;19.70;94.60
29403;DHT22;16382;59.942;30.472;2022-09-13T13:35:54;20.40;93.40
29403;DHT22;16382;59.942;30.472;2022-09-13T13:38:48;20.70;91.80
29403;DHT22;16382;59.942;30.472;2022-09-13T13:41:38;20.50;91.80
29403;DHT22;16382;59.942;30.472;2022-09-13T13:51:17;19.10;94.20
29403;DHT22;16382;59.942;30.472;2022-09-13T13:53:53;18.90;95.10
29403;DHT22;16382;59.942;30.472;2022-09-13T13:59:21;18.50;96.10
29403;DHT22;16382;59.942;30.472;2022-09-13T14:01:53;18.40;96.50
29403;DHT22;16382;59.942;30.472;2022-09-13T14:04:52;18.30;96.70
29403;DHT22;16382;59.942;30.472;2022-09-13T14:07:49;18.30;97.00
29403;DHT22;16382;59.942;30.472;2022-09-13T14:10:33;18.20;96.90
29403;DHT22;16382;59.942;30.472;2022-09-13T14:13:21;18.10;97.30
29403;DHT22;16382;59.942;30.472;2022-09-13T14:16:03;18.10;97.10
29403;DHT22;16382;59.942;30.472;2022-09-13T14:19:14;18.10;97.20
29403;DHT22;16382;59.942;30.472;2022-09-13T14:22:14;18.30;96.80
29403;DHT22;16382;59.942;30.472;2022-09-13T14:24:45;18.40;96.30
29403;DHT22;16382;59.942;30.472;2022-09-13T14:27:16;18.50;96.20
29403;DHT22;16382;59.942;30.472;2022-09-13T14:29:46;18.40;96.50
29403;DHT22;16382;59.942;30.472;2022-09-13T14:32:17;18.30;96.20
29403;DHT22;16382;59.942;30.472;2022-09-13T14:34:58;18.30;96.50
29403;DHT22;16382;59.942;30.472;2022-09-13T14:37:28;18.20;97.00
29403;DHT22;16382;59.942;30.472;2022-09-13T14:40:00;18.10;97.20
29403;DHT22;16382;59.942;30.472;2022-09-13T14:42:40;18.10;97.40
29403;DHT22;16382;59.942;30.472;2022-09-13T14:45:12;18.00;97.60
29403;DHT22;16382;59.942;30.472;2022-09-13T14:47:47;17.90;97.60
29403;DHT22;16382;59.942;30.472;2022-09-13T14:50:19;17.80;97.80
29403;DHT22;16382;59.942;30.472;2022-09-13T14:52:53;17.70;98.80
29403;DHT22;16382;59.942;30.472;2022-09-13T14:55:24;17.60;99.80
29403;DHT22;16382;59.942;30.472;2022-09-13T14:57:58;17.60;99.90
29403;DHT22;16382;59.942;30.472;2022-09-13T15:00:29;17.60;99.90
29403;DHT22;16382;59.942;30.472;2022-09-13T15:03:00;17.50;99.90
29403;DHT22;16382;59.942;30.472;2022-09-13T15:05:32;17.50;99.90
29403;DHT22;16382;59.942;30.472;2022-09-13T15:08:27;17.40;99.90
29403;DHT22;16382;59.942;30.472;2022-09-13T15:11:14;17.30;99.90
29403;DHT22;16382;59.942;30.472;2022-09-13T15:13:43;17.30;99.90
29403;DHT22;16382;59.942;30.472;2022-09-13T15:16:24;17.20;99.90
29403;DHT22;16382;59.942;30.472;2022-09-13T15:19:14;17.10;99.90
29403;DHT22;16382;59.942;30.472;2022-09-13T15:21:43;17.10;99.90
29403;DHT22;16382;59.942;30.472;2022-09-13T15:24:20;17.10;99.90
29403;DHT22;16382;59.942;30.472;2022-09-13T15:27:02;17.10;99.90
29403;DHT22;16382;59.942;30.472;2022-09-13T15:29:32;17.00;99.90
29403;DHT22;16382;59.942;30.472;2022-09-13T15:32:02;16.90;99.90
29403;DHT22;16382;59.942;30.472;2022-09-13T15:34:31;16.90;99.90
29403;DHT22;16382;59.942;30.472;2022-09-13T15:37:08;16.90;99.90
29403;DHT22;16382;59.942;30.472;2022-09-13T15:39:45;16.90;99.90
29403;DHT22;16382;59.942;30.472;2022-09-13T15:42:15;16.90;99.90
29403;DHT22;16382;59.942;30.472;2022-09-13T15:44:43;16.80;99.90
29403;DHT22;16382;59.942;30.472;2022-09-13T15:47:16;16.80;99.90
29403;DHT22;16382;59.942;30.472;2022-09-13T15:49:47;16.80;99.90
29403;DHT22;16382;59.942;30.472;2022-09-13T15:52:16;16.70;99.90
29403;DHT22;16382;59.942;30.472;2022-09-13T15:54:47;16.70;99.90
29403;DHT22;16382;59.942;30.472;2022-09-13T15:57:20;16.60;99.90
29403;DHT22;16382;59.942;30.472;2022-09-13T15:59:48;16.60;99.90
29403;DHT22;16382;59.942;30.472;2022-09-13T16:02:18;16.50;99.90
29403;DHT22;16382;59.942;30.472;2022-09-13T16:04:48;16.50;99.90
29403;DHT22;16382;59.942;30.472;2022-09-13T16:07:16;16.40;99.90
29403;DHT22;16382;59.942;30.472;2022-09-13T16:09:46;16.40;99.90
29403;DHT22;16382;59.942;30.472;2022-09-13T16:12:14;16.40;99.90
29403;DHT22;16382;59.942;30.472;2022-09-13T16:14:46;16.40;99.90
29403;DHT22;16382;59.942;30.472;2022-09-13T16:17:18;16.40;99.90
29403;DHT22;16382;59.942;30.472;2022-09-13T16:19:47;16.40;99.90
29403;DHT22;16382;59.942;30.472;2022-09-13T16:22:14;16.30;99.90
29403;DHT22;16382;59.942;30.472;2022-09-13T16:24:42;16.30;99.90